sensor_id;sensor_type;location;lat;lon;timestamp;P1;durP1;ratioP1;P2;durP2;ratioP2
39776;SDS011;25453;48.162;14.510;2022-11-15T00:01:23;14.35;;;6.28;;
39776;SDS011;25453;48.162;14.510;2022-11-15T00:03:57;14.02;;;5.75;;
39776;SDS011;25453;48.162;14.510;2022-11-15T00:06:24;12.93;;;5.78;;
39776;SDS011;25453;48.162;14.510;2022-11-15T00:08:58;12.13;;;5.88;;
39776;SDS011;25453;48.162;14.510;2022-11-15T00:11:26;10.57;;;4.93;;
39776;SDS011;25453;48.162;14.510;2022-11-15T00:14:00;11.38;;;5.50;;
39776;SDS011;25453;48.162;14.510;2022-11-15T00:16:28;12.40;;;6.28;;
39776;SDS011;25453;48.162;14.510;2022-11-15T00:18:55;12.38;;;5.88;;
39776;SDS011;25453;48.162;14.510;2022-11-15T00:21:30;12.87;;;5.80;;
39776;SDS011;25453;48.162;14.510;2022-11-15T00:23:58;13.38;;;5.28;;
39776;SDS011;25453;48.162;14.510;2022-11-15T00:26:32;12.80;;;5.60;;
39776;SDS011;25453;48.162;14.510;2022-11-15T00:29:06;12.00;;;5.80;;
39776;SDS011;25453;48.162;14.510;2022-11-15T00:31:40;13.73;;;7.05;;
39776;SDS011;25453;48.162;14.510;2022-11-15T00:34:07;13.73;;;6.47;;
39776;SDS011;25453;48.162;14.510;2022-11-15T00:36:42;11.95;;;5.80;;
39776;SDS011;25453;48.162;14.510;2022-11-15T00:39:22;31.27;;;5.78;;
39776;SDS011;25453;48.162;14.510;2022-11-15T00:41:56;12.27;;;5.30;;
39776;SDS011;25453;48.162;14.510;2022-11-15T00:44:36;15.23;;;5.50;;
39776;SDS011;25453;48.162;14.510;2022-11-15T00:47:10;11.98;;;5.43;;
39776;SDS011;25453;48.162;14.510;2022-11-15T00:49:44;15.35;;;6.50;;
39776;SDS011;25453;48.162;14.510;2022-11-15T00:52:18;13.05;;;5.25;;
39776;SDS011;25453;48.162;14.510;2022-11-15T00:54:45;12.27;;;5.00;;
39776;SDS011;25453;48.162;14.510;2022-11-15T00:57:19;9.63;;;4.85;;
39776;SDS011;25453;48.162;14.510;2022-11-15T00:59:46;11.25;;;5.32;;
39776;SDS011;25453;48.162;14.510;2022-11-15T01:02:20;12.93;;;5.78;;
39776;SDS011;25453;48.162;14.510;2022-11-15T01:04:47;12.57;;;5.53;;
39776;SDS011;25453;48.162;14.510;2022-11-15T01:07:21;11.43;;;5.03;;
39776;SDS011;25453;48.162;14.510;2022-11-15T01:09:55;9.30;;;4.78;;
39776;SDS011;25453;48.162;14.510;2022-11-15T01:12:29;9.40;;;5.03;;
39776;SDS011;25453;48.162;14.510;2022-11-15T01:14:56;14.35;;;5.50;;
39776;SDS011;25453;48.162;14.510;2022-11-15T01:17:30;11.10;;;4.65;;
39776;SDS011;25453;48.162;14.510;2022-11-15T01:20:04;10.05;;;4.75;;
39776;SDS011;25453;48.162;14.510;2022-11-15T01:22:39;10.73;;;5.03;;
39776;SDS011;25453;48.162;14.510;2022-11-15T01:25:13;12.23;;;5.55;;
39776;SDS011;25453;48.162;14.510;2022-11-15T01:27:47;13.23;;;6.13;;
39776;SDS011;25453;48.162;14.510;2022-11-15T01:30:14;11.23;;;4.75;;
39776;SDS011;25453;48.162;14.510;2022-11-15T01:32:48;9.15;;;4.60;;
39776;SDS011;25453;48.162;14.510;2022-11-15T01:35:15;10.10;;;5.28;;
39776;SDS011;25453;48.162;14.510;2022-11-15T01:37:49;10.38;;;4.32;;
39776;SDS011;25453;48.162;14.510;2022-11-15T01:40:29;9.65;;;4.70;;
39776;SDS011;25453;48.162;14.510;2022-11-15T01:43:22;8.65;;;4.72;;
39776;SDS011;25453;48.162;14.510;2022-11-15T01:49:10;8.98;;;4.10;;
39776;SDS011;25453;48.162;14.510;2022-11-15T01:51:40;7.90;;;3.97;;
39776;SDS011;25453;48.162;14.510;2022-11-15T01:54:15;9.15;;;4.63;;
39776;SDS011;25453;48.162;14.510;2022-11-15T01:56:49;9.07;;;4.45;;
39776;SDS011;25453;48.162;14.510;2022-11-15T01:59:26;12.05;;;5.38;;
39776;SDS011;25453;48.162;14.510;2022-11-15T02:01:53;11.07;;;5.22;;
39776;SDS011;25453;48.162;14.510;2022-11-15T02:04:31;8.73;;;4.35;;
39776;SDS011;25453;48.162;14.510;2022-11-15T02:07:01;7.63;;;4.10;;
39776;SDS011;25453;48.162;14.510;2022-11-15T02:09:37;8.65;;;5.03;;
39776;SDS011;25453;48.162;14.510;2022-11-15T02:12:05;9.90;;;4.50;;
39776;SDS011;25453;48.162;14.510;2022-11-15T02:14:42;8.68;;;3.85;;
39776;SDS011;25453;48.162;14.510;2022-11-15T02:17:32;7.75;;;4.20;;
39776;SDS011;25453;48.162;14.510;2022-11-15T02:22:58;7.75;;;4.03;;
39776;SDS011;25453;48.162;14.510;2022-11-15T02:26:07;9.98;;;4.25;;
39776;SDS011;25453;48.162;14.510;2022-11-15T02:28:57;8.30;;;4.03;;
39776;SDS011;25453;48.162;14.510;2022-11-15T02:32:10;10.07;;;3.90;;
39776;SDS011;25453;48.162;14.510;2022-11-15T02:43:40;7.43;;;4.22;;
39776;SDS011;25453;48.162;14.510;2022-11-15T02:49:48;9.57;;;3.78;;
39776;SDS011;25453;48.162;14.510;2022-11-15T02:52:27;8.60;;;4.03;;
39776;SDS011;25453;48.162;14.510;2022-11-15T02:54:57;9.48;;;4.45;;
39776;SDS011;25453;48.162;14.510;2022-11-15T03:00:18;8.07;;;4.65;;
39776;SDS011;25453;48.162;14.510;2022-11-15T03:08:48;6.80;;;3.63;;
39776;SDS011;25453;48.162;14.510;2022-11-15T03:11:46;10.68;;;4.32;;
39776;SDS011;25453;48.162;14.510;2022-11-15T03:14:19;9.48;;;3.88;;
39776;SDS011;25453;48.162;14.510;2022-11-15T03:17:03;7.45;;;3.28;;
39776;SDS011;25453;48.162;14.510;2022-11-15T03:19:47;11.23;;;3.72;;
39776;SDS011;25453;48.162;14.510;2022-11-15T03:22:23;8.18;;;3.63;;
39776;SDS011;25453;48.162;14.510;2022-11-15T03:24:54;10.02;;;3.60;;
39776;SDS011;25453;48.162;14.510;2022-11-15T03:27:33;9.15;;;4.00;;
39776;SDS011;25453;48.162;14.510;2022-11-15T03:30:06;10.45;;;4.28;;
39776;SDS011;25453;48.162;14.510;2022-11-15T03:32:44;8.82;;;3.83;;
39776;SDS011;25453;48.162;14.510;2022-11-15T03:35:24;7.68;;;3.72;;
39776;SDS011;25453;48.162;14.510;2022-11-15T03:41:00;8.30;;;3.60;;
39776;SDS011;25453;48.162;14.510;2022-11-15T03:46:13;8.18;;;3.67;;
39776;SDS011;25453;48.162;14.510;2022-11-15T03:48:53;9.13;;;3.60;;
39776;SDS011;25453;48.162;14.510;2022-11-15T03:51:26;7.63;;;4.00;;
39776;SDS011;25453;48.162;14.510;2022-11-15T03:54:02;8.25;;;4.28;;
39776;SDS011;25453;48.162;14.510;2022-11-15T03:56:39;10.02;;;4.05;;
39776;SDS011;25453;48.162;14.510;2022-11-15T03:59:13;8.00;;;4.07;;
39776;SDS011;25453;48.162;14.510;2022-11-15T04:01:40;9.43;;;4.25;;
39776;SDS011;25453;48.162;14.510;2022-11-15T04:04:14;8.57;;;3.97;;
39776;SDS011;25453;48.162;14.510;2022-11-15T04:06:48;9.02;;;4.22;;
39776;SDS011;25453;48.162;14.510;2022-11-15T04:09:15;8.95;;;3.67;;
39776;SDS011;25453;48.162;14.510;2022-11-15T04:11:49;6.28;;;3.65;;
39776;SDS011;25453;48.162;14.510;2022-11-15T04:14:16;9.38;;;4.25;;
39776;SDS011;25453;48.162;14.510;2022-11-15T04:16:50;9.35;;;3.83;;
39776;SDS011;25453;48.162;14.510;2022-11-15T04:19:17;7.63;;;3.90;;
39776;SDS011;25453;48.162;14.510;2022-11-15T04:22:09;7.20;;;3.28;;
39776;SDS011;25453;48.162;14.510;2022-11-15T04:25:01;9.85;;;4.40;;
39776;SDS011;25453;48.162;14.510;2022-11-15T04:27:28;8.68;;;4.07;;
39776;SDS011;25453;48.162;14.510;2022-11-15T04:30:03;10.05;;;4.22;;
39776;SDS011;25453;48.162;14.510;2022-11-15T04:32:50;8.88;;;4.10;;
39776;SDS011;25453;48.162;14.510;2022-11-15T04:35:17;7.97;;;3.90;;
39776;SDS011;25453;48.162;14.510;2022-11-15T04:37:51;8.48;;;4.15;;
39776;SDS011;25453;48.162;14.510;2022-11-15T04:40:25;7.13;;;3.60;;
39776;SDS011;25453;48.162;14.510;2022-11-15T04:42:59;8.77;;;4.32;;
39776;SDS011;25453;48.162;14.510;2022-11-15T04:45:33;10.20;;;4.55;;
39776;SDS011;25453;48.162;14.510;2022-11-15T04:48:07;7.68;;;3.25;;
39776;SDS011;25453;48.162;14.510;2022-11-15T04:50:34;8.82;;;3.95;;
39776;SDS011;25453;48.162;14.510;2022-11-15T04:53:08;9.70;;;4.25;;
39776;SDS011;25453;48.162;14.510;2022-11-15T04:55:35;7.90;;;4.07;;
39776;SDS011;25453;48.162;14.510;2022-11-15T04:58:09;9.90;;;4.47;;
39776;SDS011;25453;48.162;14.510;2022-11-15T05:00:43;5.43;;;3.25;;
39776;SDS011;25453;48.162;14.510;2022-11-15T05:03:10;7.22;;;3.90;;
39776;SDS011;25453;48.162;14.510;2022-11-15T05:06:03;8.82;;;3.70;;
39776;SDS011;25453;48.162;14.510;2022-11-15T05:08:37;8.95;;;3.78;;
39776;SDS011;25453;48.162;14.510;2022-11-15T05:11:04;9.40;;;3.55;;
39776;SDS011;25453;48.162;14.510;2022-11-15T05:13:38;12.43;;;4.35;;
39776;SDS011;25453;48.162;14.510;2022-11-15T05:16:05;8.15;;;3.20;;
39776;SDS011;25453;48.162;14.510;2022-11-15T05:18:39;7.78;;;4.22;;
39776;SDS011;25453;48.162;14.510;2022-11-15T05:21:11;8.38;;;3.80;;
39776;SDS011;25453;48.162;14.510;2022-11-15T05:23:46;7.75;;;3.70;;
39776;SDS011;25453;48.162;14.510;2022-11-15T05:26:14;7.70;;;3.90;;
39776;SDS011;25453;48.162;14.510;2022-11-15T05:28:55;10.00;;;4.13;;
39776;SDS011;25453;48.162;14.510;2022-11-15T05:31:31;12.05;;;4.25;;
39776;SDS011;25453;48.162;14.510;2022-11-15T05:34:05;9.73;;;4.28;;
39776;SDS011;25453;48.162;14.510;2022-11-15T05:36:39;10.23;;;4.65;;
39776;SDS011;25453;48.162;14.510;2022-11-15T05:39:22;7.95;;;4.35;;
39776;SDS011;25453;48.162;14.510;2022-11-15T05:41:54;8.50;;;3.97;;
39776;SDS011;25453;48.162;14.510;2022-11-15T05:44:47;10.50;;;4.80;;
39776;SDS011;25453;48.162;14.510;2022-11-15T05:47:22;10.25;;;4.20;;
39776;SDS011;25453;48.162;14.510;2022-11-15T05:49:59;9.52;;;4.85;;
39776;SDS011;25453;48.162;14.510;2022-11-15T05:52:33;8.80;;;4.15;;
39776;SDS011;25453;48.162;14.510;2022-11-15T05:55:03;9.00;;;4.88;;
39776;SDS011;25453;48.162;14.510;2022-11-15T05:57:40;7.40;;;3.97;;
39776;SDS011;25453;48.162;14.510;2022-11-15T06:00:14;11.30;;;4.43;;
39776;SDS011;25453;48.162;14.510;2022-11-15T06:02:41;8.05;;;3.90;;
39776;SDS011;25453;48.162;14.510;2022-11-15T06:05:15;8.82;;;4.38;;
39776;SDS011;25453;48.162;14.510;2022-11-15T06:07:49;8.65;;;4.32;;
39776;SDS011;25453;48.162;14.510;2022-11-15T06:10:16;7.43;;;3.90;;
39776;SDS011;25453;48.162;14.510;2022-11-15T06:13:01;9.05;;;4.40;;
39776;SDS011;25453;48.162;14.510;2022-11-15T06:15:37;8.00;;;4.30;;
39776;SDS011;25453;48.162;14.510;2022-11-15T06:18:04;9.32;;;4.25;;
39776;SDS011;25453;48.162;14.510;2022-11-15T06:20:38;9.35;;;4.75;;
39776;SDS011;25453;48.162;14.510;2022-11-15T06:23:05;8.30;;;5.00;;
39776;SDS011;25453;48.162;14.510;2022-11-15T06:25:39;9.32;;;4.72;;
39776;SDS011;25453;48.162;14.510;2022-11-15T06:28:06;9.07;;;4.38;;
39776;SDS011;25453;48.162;14.510;2022-11-15T06:30:33;7.68;;;4.20;;
39776;SDS011;25453;48.162;14.510;2022-11-15T06:33:07;11.15;;;4.68;;
39776;SDS011;25453;48.162;14.510;2022-11-15T06:35:35;9.85;;;4.72;;
39776;SDS011;25453;48.162;14.510;2022-11-15T06:38:10;11.07;;;5.03;;
39776;SDS011;25453;48.162;14.510;2022-11-15T06:43:25;17.38;;;6.70;;
39776;SDS011;25453;48.162;14.510;2022-11-15T06:45:52;18.50;;;7.47;;
39776;SDS011;25453;48.162;14.510;2022-11-15T06:48:27;19.60;;;8.18;;
39776;SDS011;25453;48.162;14.510;2022-11-15T06:50:55;22.60;;;8.82;;
39776;SDS011;25453;48.162;14.510;2022-11-15T06:53:31;23.02;;;8.25;;
39776;SDS011;25453;48.162;14.510;2022-11-15T06:56:00;29.17;;;11.10;;
39776;SDS011;25453;48.162;14.510;2022-11-15T06:58:35;23.80;;;10.15;;
39776;SDS011;25453;48.162;14.510;2022-11-15T07:01:04;22.45;;;9.90;;
39776;SDS011;25453;48.162;14.510;2022-11-15T07:03:43;24.83;;;9.60;;
39776;SDS011;25453;48.162;14.510;2022-11-15T07:06:11;22.45;;;8.95;;
39776;SDS011;25453;48.162;14.510;2022-11-15T07:08:45;18.63;;;7.95;;
39776;SDS011;25453;48.162;14.510;2022-11-15T07:11:12;21.67;;;9.45;;
39776;SDS011;25453;48.162;14.510;2022-11-15T07:13:40;23.08;;;9.38;;
39776;SDS011;25453;48.162;14.510;2022-11-15T07:16:14;19.73;;;7.88;;
39776;SDS011;25453;48.162;14.510;2022-11-15T07:18:41;23.80;;;8.88;;
39776;SDS011;25453;48.162;14.510;2022-11-15T07:21:15;23.52;;;9.93;;
39776;SDS011;25453;48.162;14.510;2022-11-15T07:23:42;23.75;;;9.75;;
39776;SDS011;25453;48.162;14.510;2022-11-15T07:26:09;24.67;;;10.75;;
39776;SDS011;25453;48.162;14.510;2022-11-15T07:28:43;24.40;;;10.45;;
39776;SDS011;25453;48.162;14.510;2022-11-15T07:31:10;24.60;;;9.98;;
39776;SDS011;25453;48.162;14.510;2022-11-15T07:33:44;26.17;;;11.40;;
39776;SDS011;25453;48.162;14.510;2022-11-15T07:36:18;25.83;;;9.77;;
39776;SDS011;25453;48.162;14.510;2022-11-15T07:38:45;26.80;;;9.90;;
39776;SDS011;25453;48.162;14.510;2022-11-15T07:41:19;22.67;;;9.15;;
39776;SDS011;25453;48.162;14.510;2022-11-15T07:43:52;22.75;;;9.48;;
39776;SDS011;25453;48.162;14.510;2022-11-15T07:46:26;23.38;;;8.43;;
39776;SDS011;25453;48.162;14.510;2022-11-15T07:48:53;28.60;;;10.48;;
39776;SDS011;25453;48.162;14.510;2022-11-15T07:51:27;28.15;;;12.15;;
39776;SDS011;25453;48.162;14.510;2022-11-15T07:53:54;27.42;;;11.02;;
39776;SDS011;25453;48.162;14.510;2022-11-15T07:56:28;23.92;;;9.85;;
39776;SDS011;25453;48.162;14.510;2022-11-15T07:58:55;29.90;;;10.88;;
39776;SDS011;25453;48.162;14.510;2022-11-15T08:01:30;27.20;;;11.57;;
39776;SDS011;25453;48.162;14.510;2022-11-15T08:03:57;24.02;;;9.70;;
39776;SDS011;25453;48.162;14.510;2022-11-15T08:06:31;26.75;;;10.48;;
39776;SDS011;25453;48.162;14.510;2022-11-15T08:08:58;26.05;;;11.75;;
39776;SDS011;25453;48.162;14.510;2022-11-15T08:11:32;25.17;;;9.45;;
39776;SDS011;25453;48.162;14.510;2022-11-15T08:14:06;25.77;;;10.02;;
39776;SDS011;25453;48.162;14.510;2022-11-15T08:16:33;30.10;;;10.90;;
39776;SDS011;25453;48.162;14.510;2022-11-15T08:19:07;23.67;;;10.40;;
39776;SDS011;25453;48.162;14.510;2022-11-15T08:21:34;21.55;;;9.13;;
39776;SDS011;25453;48.162;14.510;2022-11-15T08:24:09;22.27;;;8.90;;
39776;SDS011;25453;48.162;14.510;2022-11-15T08:26:37;30.95;;;12.10;;
39776;SDS011;25453;48.162;14.510;2022-11-15T08:29:11;33.03;;;13.35;;
39776;SDS011;25453;48.162;14.510;2022-11-15T08:31:38;30.52;;;12.10;;
39776;SDS011;25453;48.162;14.510;2022-11-15T08:34:12;30.00;;;11.68;;
39776;SDS011;25453;48.162;14.510;2022-11-15T08:36:39;24.38;;;9.55;;
39776;SDS011;25453;48.162;14.510;2022-11-15T08:39:13;28.15;;;9.75;;
39776;SDS011;25453;48.162;14.510;2022-11-15T08:41:53;24.98;;;8.80;;
39776;SDS011;25453;48.162;14.510;2022-11-15T08:44:27;19.80;;;8.60;;
39776;SDS011;25453;48.162;14.510;2022-11-15T08:46:54;19.50;;;8.70;;
39776;SDS011;25453;48.162;14.510;2022-11-15T08:49:21;17.63;;;7.72;;
39776;SDS011;25453;48.162;14.510;2022-11-15T08:51:56;17.67;;;7.15;;
39776;SDS011;25453;48.162;14.510;2022-11-15T08:54:23;20.20;;;7.63;;
39776;SDS011;25453;48.162;14.510;2022-11-15T08:56:57;20.67;;;7.57;;
39776;SDS011;25453;48.162;14.510;2022-11-15T08:59:24;17.05;;;7.13;;
39776;SDS011;25453;48.162;14.510;2022-11-15T09:01:58;18.80;;;7.18;;
39776;SDS011;25453;48.162;14.510;2022-11-15T09:04:25;17.23;;;6.57;;
39776;SDS011;25453;48.162;14.510;2022-11-15T09:06:59;18.55;;;8.07;;
39776;SDS011;25453;48.162;14.510;2022-11-15T09:09:33;20.65;;;8.32;;
39776;SDS011;25453;48.162;14.510;2022-11-15T09:12:00;20.70;;;7.78;;
39776;SDS011;25453;48.162;14.510;2022-11-15T09:14:34;22.05;;;8.50;;
39776;SDS011;25453;48.162;14.510;2022-11-15T09:17:01;21.73;;;8.82;;
39776;SDS011;25453;48.162;14.510;2022-11-15T09:19:29;22.90;;;9.02;;
39776;SDS011;25453;48.162;14.510;2022-11-15T09:22:07;25.77;;;9.27;;
39776;SDS011;25453;48.162;14.510;2022-11-15T09:24:34;25.48;;;9.60;;
39776;SDS011;25453;48.162;14.510;2022-11-15T09:27:09;22.52;;;8.77;;
39776;SDS011;25453;48.162;14.510;2022-11-15T09:29:43;22.63;;;8.95;;
39776;SDS011;25453;48.162;14.510;2022-11-15T09:32:17;20.52;;;8.10;;
39776;SDS011;25453;48.162;14.510;2022-11-15T09:34:44;23.65;;;9.40;;
39776;SDS011;25453;48.162;14.510;2022-11-15T09:37:11;23.50;;;9.57;;
39776;SDS011;25453;48.162;14.510;2022-11-15T09:39:45;23.95;;;10.15;;
39776;SDS011;25453;48.162;14.510;2022-11-15T09:45:07;24.27;;;9.30;;
39776;SDS011;25453;48.162;14.510;2022-11-15T09:56:41;22.77;;;8.88;;
39776;SDS011;25453;48.162;14.510;2022-11-15T10:04:47;22.55;;;9.77;;
39776;SDS011;25453;48.162;14.510;2022-11-15T10:08:12;24.98;;;9.77;;
39776;SDS011;25453;48.162;14.510;2022-11-15T10:12:48;25.75;;;8.70;;
39776;SDS011;25453;48.162;14.510;2022-11-15T10:15:25;17.08;;;7.93;;
39776;SDS011;25453;48.162;14.510;2022-11-15T10:20:49;15.27;;;6.43;;
39776;SDS011;25453;48.162;14.510;2022-11-15T10:23:27;20.05;;;6.75;;
39776;SDS011;25453;48.162;14.510;2022-11-15T10:25:57;15.05;;;5.72;;
39776;SDS011;25453;48.162;14.510;2022-11-15T10:28:32;14.00;;;5.80;;
39776;SDS011;25453;48.162;14.510;2022-11-15T10:31:20;19.73;;;7.40;;
39776;SDS011;25453;48.162;14.510;2022-11-15T10:33:50;14.10;;;6.90;;
39776;SDS011;25453;48.162;14.510;2022-11-15T10:36:30;17.05;;;7.40;;
39776;SDS011;25453;48.162;14.510;2022-11-15T10:41:53;17.52;;;7.28;;
39776;SDS011;25453;48.162;14.510;2022-11-15T10:44:41;17.95;;;7.45;;
39776;SDS011;25453;48.162;14.510;2022-11-15T10:47:26;13.45;;;5.95;;
39776;SDS011;25453;48.162;14.510;2022-11-15T10:50:07;15.75;;;5.88;;
39776;SDS011;25453;48.162;14.510;2022-11-15T10:53:03;15.50;;;6.00;;
39776;SDS011;25453;48.162;14.510;2022-11-15T10:55:48;12.80;;;6.70;;
39776;SDS011;25453;48.162;14.510;2022-11-15T10:58:41;18.95;;;7.15;;
39776;SDS011;25453;48.162;14.510;2022-11-15T11:01:18;19.95;;;7.40;;
39776;SDS011;25453;48.162;14.510;2022-11-15T11:03:58;15.15;;;6.50;;
39776;SDS011;25453;48.162;14.510;2022-11-15T11:06:49;15.80;;;7.22;;
39776;SDS011;25453;48.162;14.510;2022-11-15T11:09:32;16.17;;;6.55;;
39776;SDS011;25453;48.162;14.510;2022-11-15T11:12:11;19.13;;;7.05;;
39776;SDS011;25453;48.162;14.510;2022-11-15T11:14:45;15.85;;;7.13;;
39776;SDS011;25453;48.162;14.510;2022-11-15T11:17:23;16.80;;;6.82;;
39776;SDS011;25453;48.162;14.510;2022-11-15T11:26:05;15.90;;;7.13;;
39776;SDS011;25453;48.162;14.510;2022-11-15T11:28:46;18.00;;;6.72;;
39776;SDS011;25453;48.162;14.510;2022-11-15T11:37:14;16.17;;;6.22;;
39776;SDS011;25453;48.162;14.510;2022-11-15T11:48:07;19.75;;;7.18;;
39776;SDS011;25453;48.162;14.510;2022-11-15T11:50:46;21.55;;;7.40;;
39776;SDS011;25453;48.162;14.510;2022-11-15T11:53:29;24.52;;;8.73;;
39776;SDS011;25453;48.162;14.510;2022-11-15T11:56:14;19.60;;;7.55;;
39776;SDS011;25453;48.162;14.510;2022-11-15T11:58:56;17.75;;;6.97;;
39776;SDS011;25453;48.162;14.510;2022-11-15T12:01:38;26.38;;;9.38;;
39776;SDS011;25453;48.162;14.510;2022-11-15T12:07:12;20.58;;;8.90;;
39776;SDS011;25453;48.162;14.510;2022-11-15T12:10:02;24.10;;;8.52;;
39776;SDS011;25453;48.162;14.510;2022-11-15T12:15:39;20.45;;;6.90;;
39776;SDS011;25453;48.162;14.510;2022-11-15T12:18:14;18.40;;;7.30;;
39776;SDS011;25453;48.162;14.510;2022-11-15T12:20:50;17.67;;;6.82;;
39776;SDS011;25453;48.162;14.510;2022-11-15T12:23:46;18.02;;;7.22;;
39776;SDS011;25453;48.162;14.510;2022-11-15T12:26:20;14.13;;;6.13;;
39776;SDS011;25453;48.162;14.510;2022-11-15T12:28:59;15.95;;;6.85;;
39776;SDS011;25453;48.162;14.510;2022-11-15T12:36:48;18.90;;;7.90;;
39776;SDS011;25453;48.162;14.510;2022-11-15T12:40:03;22.75;;;8.15;;
39776;SDS011;25453;48.162;14.510;2022-11-15T12:45:46;18.92;;;7.30;;
39776;SDS011;25453;48.162;14.510;2022-11-15T12:51:09;18.48;;;7.38;;
39776;SDS011;25453;48.162;14.510;2022-11-15T12:53:36;17.58;;;7.30;;
39776;SDS011;25453;48.162;14.510;2022-11-15T12:58:44;15.00;;;5.65;;
39776;SDS011;25453;48.162;14.510;2022-11-15T13:06:56;14.20;;;5.78;;
39776;SDS011;25453;48.162;14.510;2022-11-15T13:14:41;16.15;;;7.35;;
39776;SDS011;25453;48.162;14.510;2022-11-15T13:17:22;14.57;;;6.93;;
39776;SDS011;25453;48.162;14.510;2022-11-15T13:22:59;16.98;;;7.00;;
39776;SDS011;25453;48.162;14.510;2022-11-15T13:34:24;13.15;;;5.10;;
39776;SDS011;25453;48.162;14.510;2022-11-15T13:43:23;13.70;;;6.25;;
39776;SDS011;25453;48.162;14.510;2022-11-15T13:49:05;13.63;;;6.05;;
39776;SDS011;25453;48.162;14.510;2022-11-15T13:51:42;9.32;;;4.60;;
39776;SDS011;25453;48.162;14.510;2022-11-15T13:54:33;12.73;;;5.78;;
39776;SDS011;25453;48.162;14.510;2022-11-15T13:57:12;14.35;;;5.20;;
39776;SDS011;25453;48.162;14.510;2022-11-15T14:02:29;18.92;;;7.28;;
39776;SDS011;25453;48.162;14.510;2022-11-15T14:05:14;17.88;;;6.97;;
39776;SDS011;25453;48.162;14.510;2022-11-15T14:07:54;18.13;;;7.03;;
39776;SDS011;25453;48.162;14.510;2022-11-15T14:13:59;15.35;;;5.82;;
39776;SDS011;25453;48.162;14.510;2022-11-15T14:16:42;14.43;;;5.90;;
39776;SDS011;25453;48.162;14.510;2022-11-15T14:24:46;15.18;;;5.63;;
39776;SDS011;25453;48.162;14.510;2022-11-15T14:27:38;15.90;;;5.55;;
39776;SDS011;25453;48.162;14.510;2022-11-15T14:30:12;15.48;;;6.55;;
39776;SDS011;25453;48.162;14.510;2022-11-15T14:32:49;16.02;;;6.25;;
39776;SDS011;25453;48.162;14.510;2022-11-15T14:35:20;15.80;;;6.43;;
39776;SDS011;25453;48.162;14.510;2022-11-15T14:37:56;15.40;;;7.15;;
39776;SDS011;25453;48.162;14.510;2022-11-15T14:40:25;16.65;;;6.75;;
39776;SDS011;25453;48.162;14.510;2022-11-15T14:43:07;14.18;;;6.10;;
39776;SDS011;25453;48.162;14.510;2022-11-15T14:45:38;14.70;;;6.15;;
39776;SDS011;25453;48.162;14.510;2022-11-15T14:48:13;12.93;;;6.30;;
39776;SDS011;25453;48.162;14.510;2022-11-15T14:50:43;15.48;;;5.72;;
39776;SDS011;25453;48.162;14.510;2022-11-15T14:53:18;13.57;;;6.05;;
39776;SDS011;25453;48.162;14.510;2022-11-15T14:55:46;17.05;;;6.13;;
39776;SDS011;25453;48.162;14.510;2022-11-15T14:58:20;15.38;;;6.30;;
39776;SDS011;25453;48.162;14.510;2022-11-15T15:00:47;12.95;;;6.45;;
39776;SDS011;25453;48.162;14.510;2022-11-15T15:03:21;13.45;;;5.78;;
39776;SDS011;25453;48.162;14.510;2022-11-15T15:05:48;13.45;;;5.55;;
39776;SDS011;25453;48.162;14.510;2022-11-15T15:08:22;12.95;;;5.57;;
39776;SDS011;25453;48.162;14.510;2022-11-15T15:10:49;17.38;;;8.10;;
39776;SDS011;25453;48.162;14.510;2022-11-15T15:13:20;14.40;;;6.72;;
39776;SDS011;25453;48.162;14.510;2022-11-15T15:15:56;14.90;;;6.78;;
39776;SDS011;25453;48.162;14.510;2022-11-15T15:18:25;16.95;;;6.85;;
39776;SDS011;25453;48.162;14.510;2022-11-15T15:20:59;18.63;;;6.50;;
39776;SDS011;25453;48.162;14.510;2022-11-15T15:23:33;13.88;;;6.05;;
39776;SDS011;25453;48.162;14.510;2022-11-15T15:26:08;14.68;;;6.15;;
39776;SDS011;25453;48.162;14.510;2022-11-15T15:28:42;19.45;;;7.03;;
39776;SDS011;25453;48.162;14.510;2022-11-15T15:31:09;17.15;;;7.35;;
39776;SDS011;25453;48.162;14.510;2022-11-15T15:33:44;18.40;;;8.32;;
39776;SDS011;25453;48.162;14.510;2022-11-15T15:36:18;21.03;;;9.37;;
39776;SDS011;25453;48.162;14.510;2022-11-15T15:38:45;16.95;;;7.82;;
39776;SDS011;25453;48.162;14.510;2022-11-15T15:41:20;17.48;;;6.97;;
39776;SDS011;25453;48.162;14.510;2022-11-15T15:43:54;16.40;;;7.33;;
39776;SDS011;25453;48.162;14.510;2022-11-15T15:46:30;20.55;;;7.72;;
39776;SDS011;25453;48.162;14.510;2022-11-15T15:48:57;21.42;;;7.93;;
39776;SDS011;25453;48.162;14.510;2022-11-15T15:51:32;18.23;;;7.10;;
39776;SDS011;25453;48.162;14.510;2022-11-15T15:53:59;17.55;;;7.35;;
39776;SDS011;25453;48.162;14.510;2022-11-15T15:56:33;18.48;;;7.65;;
39776;SDS011;25453;48.162;14.510;2022-11-15T15:59:07;15.13;;;6.87;;
39776;SDS011;25453;48.162;14.510;2022-11-15T16:01:41;16.67;;;7.28;;
39776;SDS011;25453;48.162;14.510;2022-11-15T16:04:08;15.07;;;6.65;;
39776;SDS011;25453;48.162;14.510;2022-11-15T16:06:37;21.73;;;7.45;;
39776;SDS011;25453;48.162;14.510;2022-11-15T16:09:15;17.65;;;7.78;;
39776;SDS011;25453;48.162;14.510;2022-11-15T16:11:45;16.17;;;7.10;;
39776;SDS011;25453;48.162;14.510;2022-11-15T16:14:19;19.98;;;6.68;;
39776;SDS011;25453;48.162;14.510;2022-11-15T16:16:49;19.80;;;7.95;;
39776;SDS011;25453;48.162;14.510;2022-11-15T16:19:23;21.88;;;7.30;;
39776;SDS011;25453;48.162;14.510;2022-11-15T16:21:50;14.23;;;6.00;;
39776;SDS011;25453;48.162;14.510;2022-11-15T16:24:27;15.73;;;6.70;;
39776;SDS011;25453;48.162;14.510;2022-11-15T16:26:54;21.90;;;7.53;;
39776;SDS011;25453;48.162;14.510;2022-11-15T16:29:29;14.18;;;6.07;;
39776;SDS011;25453;48.162;14.510;2022-11-15T16:31:56;13.60;;;5.82;;
39776;SDS011;25453;48.162;14.510;2022-11-15T16:34:30;15.75;;;6.50;;
39776;SDS011;25453;48.162;14.510;2022-11-15T16:37:04;14.35;;;5.90;;
39776;SDS011;25453;48.162;14.510;2022-11-15T16:39:55;15.68;;;5.95;;
39776;SDS011;25453;48.162;14.510;2022-11-15T16:42:38;18.63;;;7.25;;
39776;SDS011;25453;48.162;14.510;2022-11-15T16:45:13;17.10;;;6.80;;
39776;SDS011;25453;48.162;14.510;2022-11-15T16:47:47;17.20;;;6.30;;
39776;SDS011;25453;48.162;14.510;2022-11-15T16:50:22;16.38;;;6.53;;
39776;SDS011;25453;48.162;14.510;2022-11-15T16:52:58;16.75;;;7.10;;
39776;SDS011;25453;48.162;14.510;2022-11-15T16:55:26;15.13;;;6.63;;
39776;SDS011;25453;48.162;14.510;2022-11-15T16:58:01;16.60;;;6.90;;
39776;SDS011;25453;48.162;14.510;2022-11-15T17:00:35;17.52;;;7.82;;
39776;SDS011;25453;48.162;14.510;2022-11-15T17:03:02;16.55;;;7.05;;
39776;SDS011;25453;48.162;14.510;2022-11-15T17:05:30;14.80;;;6.25;;
39776;SDS011;25453;48.162;14.510;2022-11-15T17:08:04;12.48;;;5.43;;
39776;SDS011;25453;48.162;14.510;2022-11-15T17:10:31;15.65;;;6.57;;
39776;SDS011;25453;48.162;14.510;2022-11-15T17:13:07;18.00;;;6.05;;
39776;SDS011;25453;48.162;14.510;2022-11-15T17:15:39;13.43;;;6.28;;
39776;SDS011;25453;48.162;14.510;2022-11-15T17:18:13;11.65;;;5.70;;
39776;SDS011;25453;48.162;14.510;2022-11-15T17:20:47;12.77;;;5.07;;
39776;SDS011;25453;48.162;14.510;2022-11-15T17:23:14;10.32;;;4.78;;
39776;SDS011;25453;48.162;14.510;2022-11-15T17:25:57;10.68;;;4.57;;
39776;SDS011;25453;48.162;14.510;2022-11-15T17:28:54;11.77;;;4.65;;
39776;SDS011;25453;48.162;14.510;2022-11-15T17:31:29;12.30;;;4.43;;